Hlavní strana
METAR-TAF:

METAR-TAF

Letiště :

Zaqatala, Ázerbájdžán

zeměpisná šířka: 41-33-44N, zeměpisná délka: 46-40-02E, výška: 330 m

Aktuální stav počasí

Zpráva byla vytvořena před 57 minutami, v 17:00 UTC
Severoseverozápadní vítr 4 kt
Teplota 25°C
Vlhkost vzduchu 83%
Tlak 1018 hPa
Viditelnost 10 km a více
Polojasno ve výšce 5500 ft

METAR: UBBY 251700Z 33004KT 9999 SCT055 25/22 Q1018 R33/////// NOSIG RMK MT OP

Čas: 21:57 (17:57 UTC)

Předpověď počasí

Zpráva byla vytvořena před 57 minutami, v 17:00 UTC
Předpověď platná od 25 v 18 UTC do 26 v 03 UTC
vítr z různých směrů 4 kt
Viditelnost 10 km a více
Skoro jasno ve výšce 4000 ft
Polojasno ve výšce 7000 ft

TAF: UBBY 251700Z 2518/2603 VRB04KT 9999 FEW040 SCT070

Stav a předpovědi počasí z více než 4 000 letišť (zprávy METAR a TAF).

Červené a žluté tečky na mapě představují dostupné meteorologické stanice.

Když kurzor umístíte na tečku, zobrazí se název stanice.

Pak kliknutím zobrazíte stav a předpověď počasí.

Chcete-li změnit mapu, kliknutím na zelené tlačítko se znaménkem +mapu přiblížíte, kliknutím na zelené tlačítko se znaménkem – mapu oddálíte a kliknutím na zelené šipky přejdete na sousední mapy.


METAR-TAF: